Terminal Aerodrome Forecast
Issued by NWS Cleveland, OH

Home | Current Version | Previous Version | Text Only | Print | Product List | Glossary On
Versions: 1 2 3 4 5 6 7 8 9 10 11 12 13 14 15 16 17 18 19 20
000
FTUS41 KCLE 202300
TAFCAK
TAF
KCAK 202330Z 2100/2124 25015G25KT P6SM BKN040 OVC050
     FM210300 23010KT P6SM SCT050 BKN070
     FM211400 23015G22KT P6SM SCT035
     FM211600 25020G35KT P6SM BKN060
     FM212300 25015KT P6SM BKN080=

USA.gov is the U.S. government's official web portal to all federal, state and local government web resources and services.